Time;durP1;ratioP1;P1;durP2;ratioP2;P2;SDS_P1;SDS_P2;PMS_P1;PMS_P2;Temp;Humidity;BMP_temperature;BMP_pressure;BME280_temperature;BME280_humidity;BME280_pressure;Samples;Min_cycle;Max_cycle;Signal;HPM_P1;HPM_P2
2024/04/15 00:01:01;;;;;;;4.07;1.10;;;12.90;91.40;;;;;;5468717;26;20008;-84
2024/04/15 00:03:27;;;;;;;3.92;1.20;;;12.90;91.40;;;;;;5488090;26;20002;-84
2024/04/15 00:05:53;;;;;;;5.22;1.52;;;12.90;91.50;;;;;;5446650;26;20074;-84
2024/04/15 00:08:18;;;;;;;2.30;1.08;;;12.90;91.50;;;;;;5454758;26;19999;-84
2024/04/15 00:10:45;;;;;;;5.72;1.58;;;12.90;91.50;;;;;;5459094;26;20002;-86
2024/04/15 00:13:10;;;;;;;3.13;1.10;;;12.80;91.50;;;;;;5457559;26;20005;-85
2024/04/15 00:15:36;;;;;;;4.90;1.73;;;12.80;91.60;;;;;;5436430;26;19999;-85
2024/04/15 00:18:02;;;;;;;4.22;1.08;;;12.80;91.70;;;;;;5490997;26;19994;-85
2024/04/15 00:20:29;;;;;;;4.40;1.52;;;12.80;91.80;;;;;;5416720;26;19998;-85
2024/04/15 00:22:55;;;;;;;5.43;1.35;;;12.80;91.90;;;;;;5446980;26;19986;-85
2024/04/15 00:25:21;;;;;;;3.35;1.20;;;12.70;91.90;;;;;;5453803;26;20002;-85
2024/04/15 00:27:47;;;;;;;4.57;1.58;;;12.70;92.00;;;;;;5483590;26;19995;-83
2024/04/15 00:30:13;;;;;;;2.95;1.40;;;12.70;92.20;;;;;;5482890;26;19998;-85
2024/04/15 00:32:38;;;;;;;4.88;1.77;;;12.70;92.30;;;;;;5498371;26;20008;-85
2024/04/15 00:35:04;;;;;;;3.55;1.92;;;12.70;92.40;;;;;;5483851;26;20045;-85
2024/04/15 00:37:30;;;;;;;3.72;1.40;;;12.70;92.50;;;;;;5480918;26;20475;-85
2024/04/15 00:39:56;;;;;;;5.72;1.63;;;12.70;92.90;;;;;;5490228;26;19990;-85
2024/04/15 00:42:21;;;;;;;5.75;1.60;;;12.60;92.80;;;;;;5402474;26;20006;-86
2024/04/15 00:44:47;;;;;;;4.63;1.45;;;12.60;92.90;;;;;;5453243;26;20454;-85
2024/04/15 00:47:14;;;;;;;4.35;1.80;;;12.60;93.00;;;;;;5453307;26;19999;-83
2024/04/15 00:49:39;;;;;;;3.30;1.77;;;12.50;93.10;;;;;;5453387;26;19998;-83
2024/04/15 00:52:07;;;;;;;5.88;2.00;;;12.50;93.20;;;;;;5453091;26;20023;-83
2024/04/15 00:54:33;;;;;;;5.95;1.95;;;12.50;93.40;;;;;;5453547;26;19998;-83
2024/04/15 00:57:00;;;;;;;2.80;1.70;;;12.40;93.50;;;;;;5454044;26;20316;-83
2024/04/15 00:59:30;;;;;;;4.35;1.60;;;12.40;93.60;;;;;;5452012;26;20058;-83
2024/04/15 01:01:57;;;;;;;5.00;2.25;;;12.40;93.70;;;;;;5424531;26;19991;-83
2024/04/15 01:04:23;;;;;;;5.22;2.08;;;12.30;93.80;;;;;;5453443;26;19998;-83
2024/04/15 01:06:51;;;;;;;4.63;1.80;;;12.30;93.80;;;;;;5393952;26;19991;-83
2024/04/15 01:09:17;;;;;;;5.10;2.53;;;12.30;93.90;;;;;;5455325;26;19995;-83
2024/04/15 01:11:43;;;;;;;4.25;1.83;;;12.30;94.00;;;;;;5453346;26;20015;-83
2024/04/15 01:14:09;;;;;;;7.28;2.47;;;12.30;94.00;;;;;;5423959;26;19995;-82
2024/04/15 01:16:38;;;;;;;5.85;2.30;;;12.30;94.10;;;;;;5424045;26;20418;-82
2024/04/15 01:19:05;;;;;;;4.30;1.98;;;12.20;94.20;;;;;;5455166;26;19995;-83
2024/04/15 01:21:33;;;;;;;6.13;2.30;;;12.10;94.30;;;;;;5453079;26;20002;-82
2024/04/15 01:24:02;;;;;;;4.40;2.00;;;12.10;94.40;;;;;;5453973;26;19998;-83
2024/04/15 01:26:31;;;;;;;3.75;1.85;;;12.10;94.50;;;;;;5455256;26;20001;-83
2024/04/15 01:28:57;;;;;;;4.88;1.98;;;12.10;94.50;;;;;;5453567;26;19991;-83
2024/04/15 01:31:23;;;;;;;5.22;1.95;;;12.10;94.60;;;;;;5453959;26;19995;-82
2024/04/15 01:33:52;;;;;;;4.88;2.00;;;12.00;94.70;;;;;;5423701;26;20419;-82
2024/04/15 01:36:18;;;;;;;4.68;2.10;;;12.00;94.80;;;;;;5453718;26;20026;-82
2024/04/15 01:38:43;;;;;;;3.97;2.15;;;11.90;94.90;;;;;;5455005;26;20002;-83
2024/04/15 01:41:09;;;;;;;4.93;2.05;;;11.90;95.00;;;;;;5456970;26;19990;-84
2024/04/15 01:43:35;;;;;;;5.10;2.13;;;11.90;95.00;;;;;;5430957;26;20434;-82
2024/04/15 01:46:01;;;;;;;3.95;1.90;;;11.90;95.10;;;;;;5460140;26;20019;-83
2024/04/15 01:48:26;;;;;;;4.10;2.03;;;11.80;95.20;;;;;;5427349;26;20434;-82
2024/04/15 01:50:52;;;;;;;3.65;2.00;;;11.80;95.30;;;;;;5427246;26;20005;-83
2024/04/15 01:53:17;;;;;;;3.38;2.05;;;11.80;95.40;;;;;;5463240;26;20040;-83
2024/04/15 01:55:43;;;;;;;5.10;2.20;;;11.80;95.40;;;;;;5464499;26;20007;-82
2024/04/15 01:58:09;;;;;;;3.67;1.88;;;11.80;95.40;;;;;;5473516;26;20014;-83
2024/04/15 02:00:35;;;;;;;4.60;2.20;;;11.80;95.40;;;;;;5447555;26;20026;-83
2024/04/15 02:03:02;;;;;;;7.97;2.55;;;11.80;95.50;;;;;;5477423;26;19991;-84
2024/04/15 02:05:27;;;;;;;5.00;2.20;;;11.80;95.50;;;;;;5475403;26;20005;-83
2024/04/15 02:07:56;;;;;;;5.18;2.30;;;11.80;95.50;;;;;;5475258;26;20006;-84
2024/04/15 02:10:22;;;;;;;4.43;2.40;;;11.80;95.50;;;;;;5472630;26;19991;-82
2024/04/15 02:12:48;;;;;;;5.03;2.40;;;11.80;95.50;;;;;;5429753;26;20009;-82
2024/04/15 02:15:15;;;;;;;3.83;2.05;;;11.80;95.50;;;;;;5452328;26;19998;-84
2024/04/15 02:17:41;;;;;;;5.18;2.35;;;11.80;95.50;;;;;;5422869;26;20005;-83
2024/04/15 02:20:07;;;;;;;4.32;2.10;;;11.80;95.60;;;;;;5452861;26;19998;-83
2024/04/15 02:22:33;;;;;;;5.45;2.78;;;11.80;95.60;;;;;;5422790;26;19995;-82
2024/04/15 02:24:58;;;;;;;6.32;2.70;;;11.80;95.60;;;;;;5452777;26;20399;-83
2024/04/15 02:27:24;;;;;;;4.50;2.42;;;11.80;95.70;;;;;;5422260;26;20506;-83
2024/04/15 02:29:53;;;;;;;4.15;2.20;;;11.80;95.70;;;;;;5421452;26;19999;-82
2024/04/15 02:32:19;;;;;;;6.18;2.65;;;11.80;95.80;;;;;;5450747;26;20015;-82
2024/04/15 02:34:45;;;;;;;5.70;2.60;;;11.80;95.80;;;;;;5453655;26;20000;-83
2024/04/15 02:37:11;;;;;;;5.63;2.85;;;11.80;95.80;;;;;;5422722;26;20462;-83
2024/04/15 02:39:38;;;;;;;6.47;3.00;;;11.80;95.80;;;;;;5392995;26;19999;-83
2024/04/15 02:42:05;;;;;;;6.72;3.00;;;11.80;95.80;;;;;;5453011;26;19994;-82
2024/04/15 02:44:30;;;;;;;4.55;2.40;;;11.80;95.80;;;;;;5392934;26;19994;-83
2024/04/15 02:46:56;;;;;;;7.15;3.20;;;11.80;95.80;;;;;;5423096;26;20001;-81
2024/04/15 02:49:22;;;;;;;6.22;2.95;;;11.80;95.90;;;;;;5393032;26;19995;-82
2024/04/15 02:51:47;;;;;;;4.97;3.00;;;11.70;95.80;;;;;;5451762;26;20045;-82
2024/04/15 02:54:13;;;;;;;5.78;3.17;;;11.70;95.80;;;;;;5454042;26;19995;-82
2024/04/15 02:56:41;;;;;;;9.02;3.72;;;11.70;95.80;;;;;;5422059;26;20065;-82
2024/04/15 02:59:07;;;;;;;6.13;3.22;;;11.70;95.90;;;;;;5422893;26;20400;-83
2024/04/15 03:01:32;;;;;;;6.13;3.20;;;11.70;95.90;;;;;;5421906;26;20036;-83
2024/04/15 03:03:58;;;;;;;7.18;3.50;;;11.70;95.90;;;;;;5421784;26;20429;-82
2024/04/15 03:06:24;;;;;;;7.80;3.50;;;11.60;96.00;;;;;;5452182;26;20419;-81
2024/04/15 03:08:52;;;;;;;5.35;3.25;;;11.60;95.90;;;;;;5451472;26;19999;-82
2024/04/15 03:11:18;;;;;;;5.38;3.00;;;11.60;96.00;;;;;;5453617;26;20426;-82
2024/04/15 03:13:46;;;;;;;8.07;4.03;;;11.60;96.00;;;;;;5452257;26;19999;-82
2024/04/15 03:16:12;;;;;;;7.68;3.78;;;11.60;96.10;;;;;;5425040;26;19995;-82
2024/04/15 03:18:37;;;;;;;9.13;3.83;;;11.60;96.10;;;;;;5455760;26;20350;-82
2024/04/15 03:21:10;;;;;;;6.20;3.42;;;11.60;96.10;;;;;;5426335;26;20326;-83
2024/04/15 03:23:36;;;;;;;9.60;4.03;;;11.60;96.10;;;;;;5426213;26;20006;-82
2024/04/15 03:26:01;;;;;;;7.30;3.63;;;11.60;96.00;;;;;;5455306;26;20006;-82
2024/04/15 03:28:27;;;;;;;6.93;3.65;;;11.60;96.00;;;;;;5424842;26;20005;-83
2024/04/15 03:30:53;;;;;;;7.18;4.00;;;11.50;96.00;;;;;;5425475;26;20438;-83
2024/04/15 03:33:18;;;;;;;8.48;4.03;;;11.50;96.10;;;;;;5478116;26;20003;-83
2024/04/15 03:35:46;;;;;;;9.98;4.18;;;11.50;96.10;;;;;;5477750;26;19999;-83
2024/04/15 03:38:12;;;;;;;7.07;3.97;;;11.40;96.10;;;;;;5478240;26;19991;-82
2024/04/15 03:40:38;;;;;;;8.82;4.03;;;11.40;96.10;;;;;;5444803;26;19995;-82
2024/04/15 03:43:03;;;;;;;7.95;3.70;;;11.40;96.10;;;;;;5454853;26;19991;-82
2024/04/15 03:45:29;;;;;;;7.70;4.05;;;11.40;96.20;;;;;;5454463;26;19995;-82
2024/04/15 03:47:55;;;;;;;8.10;3.90;;;11.40;96.20;;;;;;5425010;26;20011;-82
2024/04/15 03:50:23;;;;;;;7.68;3.65;;;11.40;96.20;;;;;;5424794;26;20445;-82
2024/04/15 03:52:49;;;;;;;6.57;4.00;;;11.40;96.20;;;;;;5454662;26;20006;-83
2024/04/15 03:55:15;;;;;;;7.50;4.30;;;11.30;96.20;;;;;;5454240;26;20005;-82
2024/04/15 03:57:40;;;;;;;6.25;3.80;;;11.30;96.30;;;;;;5424952;26;19995;-84
2024/04/15 04:00:07;;;;;;;6.70;3.53;;;11.30;96.30;;;;;;5454608;26;19994;-84
2024/04/15 04:02:32;;;;;;;7.38;3.67;;;11.20;96.30;;;;;;5424297;26;19999;-83
2024/04/15 04:04:58;;;;;;;5.85;3.95;;;11.20;96.20;;;;;;5454324;26;20406;-83
2024/04/15 04:07:24;;;;;;;5.35;3.50;;;11.20;96.30;;;;;;5425003;26;20077;-83
2024/04/15 04:09:49;;;;;;;6.65;3.72;;;11.20;96.30;;;;;;5454233;26;19995;-83
2024/04/15 04:12:15;;;;;;;6.35;3.70;;;11.20;96.30;;;;;;5424124;26;19995;-82
2024/04/15 04:14:41;;;;;;;11.07;4.53;;;11.20;96.30;;;;;;5453971;26;20006;-84
2024/04/15 04:17:07;;;;;;;6.80;3.42;;;11.10;96.30;;;;;;5455324;26;19999;-84
2024/04/15 04:19:32;;;;;;;6.90;3.95;;;11.10;96.30;;;;;;5394682;26;19994;-83
2024/04/15 04:22:01;;;;;;;7.32;3.70;;;11.10;96.40;;;;;;5453999;26;20490;-83
2024/04/15 04:24:29;;;;;;;8.18;4.35;;;11.10;96.40;;;;;;5454152;26;20009;-84
2024/04/15 04:26:55;;;;;;;9.10;3.90;;;11.10;96.50;;;;;;5452879;26;20063;-83
2024/04/15 04:29:21;;;;;;;7.32;3.42;;;11.10;96.50;;;;;;5453571;26;20033;-83
2024/04/15 04:31:46;;;;;;;8.30;3.88;;;11.10;96.50;;;;;;5454287;26;19991;-83
2024/04/15 04:34:12;;;;;;;6.15;3.17;;;11.10;96.50;;;;;;5454082;26;19999;-83
2024/04/15 04:36:37;;;;;;;6.75;3.80;;;11.00;96.50;;;;;;5424089;26;20003;-83
2024/04/15 04:39:03;;;;;;;7.15;3.50;;;11.00;96.60;;;;;;5422588;26;20447;-83
2024/04/15 04:41:29;;;;;;;6.70;3.50;;;11.00;96.60;;;;;;5453768;26;19994;-82
2024/04/15 04:43:54;;;;;;;7.55;3.42;;;11.00;96.60;;;;;;5423555;26;20005;-83
2024/04/15 04:46:20;;;;;;;5.65;3.17;;;10.90;96.60;;;;;;5394752;26;19994;-83
2024/04/15 04:48:46;;;;;;;8.10;3.67;;;10.90;96.70;;;;;;5454423;26;19999;-83
2024/04/15 04:51:11;;;;;;;8.52;3.65;;;10.90;96.70;;;;;;5454535;26;19998;-83
2024/04/15 04:53:37;;;;;;;6.95;3.00;;;10.90;96.70;;;;;;5454960;26;20072;-83
2024/04/15 04:56:08;;;;;;;8.32;3.20;;;10.90;96.80;;;;;;5456382;26;20007;-83
2024/04/15 04:58:34;;;;;;;11.18;3.15;;;10.90;96.80;;;;;;5443745;26;19994;-84
2024/04/15 05:01:13;;;;;;;7.57;2.80;;;10.80;96.80;;;;;;5473481;26;20466;-83
2024/04/15 05:03:44;;;;;;;7.68;3.10;;;10.90;96.90;;;;;;5474936;26;20002;-84
2024/04/15 05:06:11;;;;;;;7.20;2.90;;;10.90;96.90;;;;;;5474574;26;20050;-82
2024/04/15 05:08:38;;;;;;;8.90;2.90;;;10.90;97.00;;;;;;5461956;26;19995;-82
2024/04/15 05:11:04;;;;;;;8.38;2.92;;;10.80;97.00;;;;;;5461829;26;19995;-83
2024/04/15 05:13:32;;;;;;;8.23;3.30;;;10.90;97.00;;;;;;5461166;26;19995;-86
2024/04/15 05:16:05;;;;;;;6.55;3.08;;;10.90;97.10;;;;;;5427642;26;20003;-83
2024/04/15 05:18:31;;;;;;;7.20;3.00;;;10.90;97.20;;;;;;5453350;26;19998;-82
2024/04/15 05:20:59;;;;;;;7.32;2.53;;;10.80;97.10;;;;;;5452467;26;20071;-82
2024/04/15 05:23:27;;;;;;;6.43;2.90;;;10.90;97.10;;;;;;5452352;26;20060;-81
2024/04/15 05:25:58;;;;;;;5.55;2.60;;;10.90;97.20;;;;;;5423253;26;19999;-83
2024/04/15 05:28:24;;;;;;;8.20;2.70;;;10.80;97.10;;;;;;5422335;26;19995;-83
2024/04/15 05:30:52;;;;;;;6.93;2.90;;;10.80;97.10;;;;;;5452827;26;20005;-83
2024/04/15 05:33:18;;;;;;;6.93;2.83;;;10.80;97.20;;;;;;5422930;26;19998;-82
2024/04/15 05:35:44;;;;;;;7.63;2.60;;;10.80;97.30;;;;;;5422803;26;19998;-82
2024/04/15 05:38:11;;;;;;;6.25;2.90;;;10.80;97.30;;;;;;5392977;26;19999;-84
2024/04/15 05:40:37;;;;;;;7.55;3.22;;;10.80;97.40;;;;;;5422793;26;20002;-83
2024/04/15 05:43:05;;;;;;;7.15;2.88;;;10.80;97.40;;;;;;5426654;26;21648;-83
2024/04/15 05:45:33;;;;;;;7.35;2.65;;;10.80;97.50;;;;;;5429372;26;19990;-83
2024/04/15 05:47:59;;;;;;;5.75;2.70;;;10.80;97.60;;;;;;5458934;26;20002;-83
2024/04/15 05:50:27;;;;;;;9.95;2.72;;;10.80;97.60;;;;;;5458050;26;20334;-84
2024/04/15 05:52:53;;;;;;;7.25;2.70;;;10.80;97.50;;;;;;5429973;26;19994;-83
2024/04/15 05:55:19;;;;;;;6.55;2.58;;;10.80;97.60;;;;;;5459470;26;19998;-83
2024/04/15 05:57:45;;;;;;;5.32;2.58;;;10.80;97.60;;;;;;5458210;26;19990;-84
2024/04/15 06:00:12;;;;;;;4.63;2.25;;;10.80;97.60;;;;;;5491042;26;20009;-84
2024/04/15 06:02:38;;;;;;;8.18;2.80;;;10.80;97.60;;;;;;5428923;26;20005;-84
2024/04/15 06:05:04;;;;;;;5.88;2.60;;;10.80;97.60;;;;;;5458588;26;19998;-84
2024/04/15 06:07:30;;;;;;;5.93;2.53;;;10.80;97.70;;;;;;5458787;26;20067;-83
2024/04/15 06:09:56;;;;;;;8.20;2.80;;;10.90;97.70;;;;;;5457878;26;19994;-83
2024/04/15 06:12:21;;;;;;;5.72;2.47;;;10.90;97.70;;;;;;5429252;26;19990;-83
2024/04/15 06:14:47;;;;;;;4.05;2.10;;;10.90;97.70;;;;;;5429022;26;19994;-82
2024/04/15 06:17:13;;;;;;;9.00;2.92;;;10.90;97.70;;;;;;5400505;26;20005;-83
2024/04/15 06:19:40;;;;;;;8.13;2.47;;;10.90;97.70;;;;;;5460270;26;20476;-82
2024/04/15 06:22:06;;;;;;;6.30;2.42;;;10.90;97.70;;;;;;5462414;26;20058;-83
2024/04/15 06:24:31;;;;;;;5.57;2.60;;;10.90;97.70;;;;;;5436712;26;20442;-82
2024/04/15 06:26:57;;;;;;;7.53;2.30;;;10.90;97.80;;;;;;5443308;26;20002;-82
2024/04/15 06:29:24;;;;;;;7.40;2.50;;;10.90;97.80;;;;;;5475774;26;19996;-82
2024/04/15 06:31:51;;;;;;;5.40;2.97;;;10.90;97.80;;;;;;5479951;26;19997;-84
2024/04/15 06:34:20;;;;;;;8.07;2.65;;;10.90;97.80;;;;;;5447086;26;19994;-83
2024/04/15 06:36:46;;;;;;;7.40;2.67;;;10.90;97.90;;;;;;5502911;26;19998;-82
2024/04/15 06:39:11;;;;;;;6.43;2.63;;;10.90;97.90;;;;;;5441811;26;20031;-83
2024/04/15 06:41:37;;;;;;;5.15;2.55;;;10.90;97.90;;;;;;5478563;26;19997;-83
2024/04/15 06:44:06;;;;;;;8.20;2.75;;;10.90;97.90;;;;;;5442307;26;19994;-83
2024/04/15 06:46:32;;;;;;;7.88;2.50;;;11.00;98.00;;;;;;5429567;26;19986;-84
2024/04/15 06:48:58;;;;;;;7.57;2.85;;;11.00;97.90;;;;;;5458337;26;20065;-82
2024/04/15 06:51:24;;;;;;;5.50;2.33;;;11.00;97.90;;;;;;5427949;26;19994;-82
2024/04/15 06:53:49;;;;;;;7.05;2.80;;;11.10;98.00;;;;;;5399523;26;20001;-82
2024/04/15 06:56:16;;;;;;;8.13;2.35;;;11.10;98.00;;;;;;5430167;26;19994;-82
2024/04/15 06:58:42;;;;;;;9.77;2.95;;;11.10;98.00;;;;;;5430521;26;19998;-83
2024/04/15 07:01:08;;;;;;;6.72;2.60;;;11.10;98.00;;;;;;5399953;26;20001;-82
2024/04/15 07:03:34;;;;;;;6.53;2.47;;;11.10;98.00;;;;;;5458754;26;19994;-82
2024/04/15 07:06:04;;;;;;;6.80;2.50;;;11.10;98.00;;;;;;5458835;26;19990;-83
2024/04/15 07:08:33;;;;;;;5.38;2.78;;;11.20;98.10;;;;;;5429058;26;19994;-83
2024/04/15 07:10:59;;;;;;;6.38;2.60;;;11.30;98.10;;;;;;5428358;26;19991;-83
2024/04/15 07:13:24;;;;;;;7.80;2.42;;;11.30;98.10;;;;;;5427021;26;19998;-83
2024/04/15 07:15:50;;;;;;;6.75;2.88;;;11.40;98.00;;;;;;5427846;26;19994;-82
2024/04/15 07:18:15;;;;;;;3.42;1.77;;;11.50;98.00;;;;;;5456817;26;20005;-84
2024/04/15 07:20:44;;;;;;;8.40;2.80;;;11.50;97.90;;;;;;5489762;26;20321;-83
2024/04/15 07:23:09;;;;;;;5.97;2.35;;;11.60;97.90;;;;;;5456860;26;20002;-82
2024/04/15 07:25:35;;;;;;;6.07;2.67;;;11.70;97.80;;;;;;5456491;26;20070;-82
2024/04/15 07:28:01;;;;;;;6.60;2.05;;;11.70;97.80;;;;;;5427832;26;19994;-81
2024/04/15 07:30:26;;;;;;;6.82;2.45;;;11.80;97.80;;;;;;5457384;26;19994;-84
2024/04/15 07:32:52;;;;;;;5.35;2.20;;;11.80;97.70;;;;;;5457414;26;19994;-82
2024/04/15 07:35:18;;;;;;;5.72;2.40;;;11.90;97.70;;;;;;5431007;26;19995;-83
2024/04/15 07:37:47;;;;;;;5.50;2.30;;;12.00;97.60;;;;;;5462173;26;20373;-83
2024/04/15 07:40:13;;;;;;;7.78;2.20;;;12.20;97.50;;;;;;5403036;26;19999;-81
2024/04/15 07:42:41;;;;;;;8.52;2.30;;;12.30;97.50;;;;;;5398985;26;20422;-82
2024/04/15 07:45:07;;;;;;;4.03;1.63;;;12.30;97.30;;;;;;5428083;26;20005;-82
2024/04/15 07:47:33;;;;;;;5.15;2.28;;;12.40;97.20;;;;;;5457709;26;20426;-82
2024/04/15 07:49:58;;;;;;;8.50;2.40;;;12.40;97.10;;;;;;5489239;26;20004;-82
2024/04/15 07:52:25;;;;;;;5.22;1.83;;;12.50;97.10;;;;;;5489543;26;19990;-82
2024/04/15 07:54:51;;;;;;;7.45;2.20;;;12.50;97.00;;;;;;5456830;26;19990;-82
2024/04/15 07:57:17;;;;;;;4.38;1.80;;;12.50;96.90;;;;;;5489429;26;20002;-82
2024/04/15 07:59:43;;;;;;;5.05;1.90;;;12.60;96.70;;;;;;5457681;26;19998;-82
2024/04/15 08:02:09;;;;;;;3.83;1.63;;;12.60;96.60;;;;;;5398677;26;20009;-82
2024/04/15 08:04:36;;;;;;;5.32;1.90;;;12.60;96.60;;;;;;5461131;26;20037;-82
2024/04/15 08:07:01;;;;;;;5.10;1.95;;;12.50;96.60;;;;;;5463091;26;19990;-83
2024/04/15 08:09:27;;;;;;;5.18;1.95;;;12.60;96.50;;;;;;5446460;26;20031;-82
2024/04/15 08:11:53;;;;;;;4.65;1.95;;;12.60;96.50;;;;;;5455097;26;20058;-82
2024/04/15 08:14:20;;;;;;;4.35;1.90;;;12.70;96.50;;;;;;5425240;26;19990;-82
2024/04/15 08:16:46;;;;;;;5.72;1.77;;;12.70;96.40;;;;;;5515043;26;20031;-83
2024/04/15 08:19:12;;;;;;;6.68;2.10;;;12.80;96.30;;;;;;5441244;26;20422;-82
2024/04/15 08:21:37;;;;;;;6.03;1.80;;;12.80;96.20;;;;;;5459981;26;20335;-82
2024/04/15 08:24:03;;;;;;;5.35;1.98;;;12.90;96.20;;;;;;5400458;26;19994;-82
2024/04/15 08:26:29;;;;;;;4.05;1.90;;;12.90;96.10;;;;;;5429860;26;20006;-82
2024/04/15 08:28:55;;;;;;;8.18;2.25;;;13.00;96.00;;;;;;5429092;26;19990;-82
2024/04/15 08:31:21;;;;;;;5.13;2.03;;;13.00;95.80;;;;;;5429486;26;19998;-82
2024/04/15 08:33:47;;;;;;;5.18;1.98;;;13.00;95.80;;;;;;5459751;26;19990;-82
2024/04/15 08:36:15;;;;;;;4.50;2.10;;;13.10;95.80;;;;;;5429896;26;19994;-83
2024/04/15 08:38:44;;;;;;;6.28;2.20;;;13.20;95.70;;;;;;5459914;26;19993;-83
2024/04/15 08:41:19;;;;;;;4.57;2.10;;;13.20;95.70;;;;;;5430489;26;20005;-82
2024/04/15 08:43:46;;;;;;;6.97;2.55;;;13.20;95.70;;;;;;5491471;26;20009;-82
2024/04/15 08:46:23;;;;;;;5.60;2.40;;;13.20;95.60;;;;;;5492110;26;20318;-82
2024/04/15 08:48:48;;;;;;;6.28;2.35;;;13.30;95.40;;;;;;5460108;26;20005;-83
2024/04/15 08:51:15;;;;;;;5.30;2.72;;;13.30;95.40;;;;;;5400339;26;20429;-83
2024/04/15 08:53:41;;;;;;;5.60;2.25;;;13.30;95.40;;;;;;5458645;26;19998;-82
2024/04/15 08:56:08;;;;;;;3.38;2.03;;;13.40;95.30;;;;;;5459666;26;20005;-83
2024/04/15 08:58:34;;;;;;;4.93;2.03;;;13.50;95.20;;;;;;5400183;26;19994;-83
2024/04/15 09:01:00;;;;;;;3.30;1.75;;;13.50;95.00;;;;;;5491090;26;20069;-83
2024/04/15 09:03:26;;;;;;;5.80;2.00;;;13.50;94.80;;;;;;5400015;26;20387;-83
2024/04/15 09:05:52;;;;;;;5.55;1.85;;;13.60;94.60;;;;;;5429598;26;20014;-83
2024/04/15 09:08:17;;;;;;;5.70;1.88;;;13.60;94.70;;;;;;5399644;26;19994;-83
2024/04/15 09:10:43;;;;;;;3.85;1.67;;;13.60;94.50;;;;;;5399571;26;20006;-82
2024/04/15 09:13:09;;;;;;;5.60;1.80;;;13.60;94.40;;;;;;5491164;26;20000;-83
2024/04/15 09:15:35;;;;;;;6.00;1.63;;;13.60;94.20;;;;;;5458697;26;20074;-82
2024/04/15 09:18:03;;;;;;;3.17;1.50;;;13.60;94.20;;;;;;5491142;26;20446;-82
2024/04/15 09:20:29;;;;;;;1.77;1.15;;;13.60;94.30;;;;;;5429401;26;20034;-82
2024/04/15 09:22:55;;;;;;;6.95;1.83;;;13.70;94.40;;;;;;5459683;26;20307;-83
2024/04/15 09:25:22;;;;;;;3.38;1.63;;;13.80;94.40;;;;;;5429408;26;20010;-82
2024/04/15 09:27:47;;;;;;;6.35;1.70;;;13.90;94.30;;;;;;5428515;26;19994;-82
2024/04/15 09:30:16;;;;;;;4.32;1.58;;;14.00;94.20;;;;;;5459487;26;20005;-82
2024/04/15 09:32:54;;;;;;;4.43;1.63;;;14.10;94.10;;;;;;5491628;26;20028;-83
2024/04/15 09:35:21;;;;;;;3.40;1.63;;;14.20;94.00;;;;;;5430514;26;20061;-83
2024/04/15 09:37:47;;;;;;;3.40;1.45;;;14.30;93.70;;;;;;5459478;26;20430;-82
2024/04/15 09:40:16;;;;;;;9.85;1.92;;;14.30;93.60;;;;;;5491947;26;20001;-81
2024/04/15 09:42:43;;;;;;;5.05;1.60;;;14.40;93.50;;;;;;5461686;26;20006;-83
2024/04/15 09:45:09;;;;;;;4.28;1.45;;;14.50;93.40;;;;;;5472500;26;20035;-83
2024/04/15 09:47:35;;;;;;;5.57;1.45;;;14.50;93.40;;;;;;5483767;26;19990;-84
2024/04/15 09:50:04;;;;;;;4.80;1.63;;;14.50;93.20;;;;;;5514378;26;19990;-83
2024/04/15 09:52:31;;;;;;;4.80;1.60;;;14.50;93.00;;;;;;5483183;26;20041;-83
2024/04/15 09:55:08;;;;;;;2.95;1.15;;;14.40;92.90;;;;;;5505800;26;20058;-82
2024/04/15 09:57:39;;;;;;;5.60;1.45;;;14.30;92.90;;;;;;5459490;26;19986;-83
2024/04/15 10:00:15;;;;;;;4.03;1.40;;;14.30;92.90;;;;;;5491284;26;20034;-83
2024/04/15 10:02:57;;;;;;;6.50;1.50;;;14.30;92.80;;;;;;5490812;26;19990;-83
2024/04/15 10:05:25;;;;;;;3.67;1.30;;;14.20;92.70;;;;;;5458442;26;19994;-83
2024/04/15 10:07:58;;;;;;;6.35;1.67;;;14.20;92.70;;;;;;5428786;26;20080;-82
2024/04/15 10:10:28;;;;;;;4.18;1.67;;;14.20;92.50;;;;;;5459023;26;19998;-83
2024/04/15 10:12:56;;;;;;;3.80;1.55;;;14.10;92.40;;;;;;5458577;26;19990;-82
2024/04/15 10:15:23;;;;;;;4.32;1.30;;;14.00;92.30;;;;;;5490435;26;20031;-83
2024/04/15 10:17:58;;;;;;;5.00;1.30;;;14.00;92.40;;;;;;5398452;26;19994;-83
2024/04/15 10:20:31;;;;;;;3.65;1.30;;;14.00;92.40;;;;;;5458079;26;20001;-82
2024/04/15 10:22:58;;;;;;;3.75;1.00;;;13.90;92.40;;;;;;5429005;26;20346;-82
2024/04/15 10:25:29;;;;;;;4.35;1.42;;;13.90;92.50;;;;;;5427455;26;20434;-82
2024/04/15 10:27:56;;;;;;;7.30;1.75;;;13.90;92.50;;;;;;5458443;26;20002;-83
2024/04/15 10:30:22;;;;;;;4.30;1.35;;;13.90;92.40;;;;;;5431001;26;19994;-82
2024/04/15 10:32:48;;;;;;;7.45;1.60;;;13.90;92.40;;;;;;5400137;26;19997;-81
2024/04/15 10:35:21;;;;;;;4.75;1.33;;;13.80;92.50;;;;;;5430539;26;19997;-81
2024/04/15 10:37:51;;;;;;;5.35;1.35;;;13.80;92.90;;;;;;5428853;26;19990;-82
2024/04/15 10:40:32;;;;;;;5.03;1.55;;;13.70;93.10;;;;;;5458460;26;19998;-82
2024/04/15 10:43:04;;;;;;;5.80;1.48;;;13.70;93.40;;;;;;5458405;26;19994;-82
2024/04/15 10:45:34;;;;;;;2.72;1.00;;;13.80;93.60;;;;;;5458085;26;20047;-82
2024/04/15 10:48:03;;;;;;;3.47;1.08;;;13.80;93.70;;;;;;5428483;26;19990;-82
2024/04/15 10:50:31;;;;;;;3.58;1.42;;;13.80;93.70;;;;;;5457824;26;19994;-82
2024/04/15 10:52:57;;;;;;;6.55;1.42;;;13.70;94.10;;;;;;5458566;26;20001;-81
2024/04/15 10:55:23;;;;;;;3.38;1.05;;;13.70;93.90;;;;;;5458713;26;19998;-82
2024/04/15 10:57:51;;;;;;;6.07;1.40;;;13.70;94.00;;;;;;5458581;26;20030;-82
2024/04/15 11:00:19;;;;;;;3.28;1.23;;;13.60;94.10;;;;;;5459958;26;20012;-83
2024/04/15 11:02:54;;;;;;;4.65;1.23;;;13.60;94.20;;;;;;5464746;26;19990;-82
2024/04/15 11:05:23;;;;;;;4.75;1.20;;;13.60;94.30;;;;;;5464595;26;20010;-83
2024/04/15 11:07:53;;;;;;;3.67;1.30;;;13.60;94.50;;;;;;5459840;26;20001;-82
2024/04/15 11:10:19;;;;;;;2.92;1.20;;;13.50;94.50;;;;;;5458456;26;20185;-83
2024/04/15 11:12:50;;;;;;;4.88;1.77;;;13.40;94.70;;;;;;5428812;26;19998;-81
2024/04/15 11:15:16;;;;;;;6.75;1.50;;;13.30;94.90;;;;;;5458894;26;20002;-81
2024/04/15 11:17:52;;;;;;;4.50;1.67;;;13.20;95.00;;;;;;5458953;26;20080;-82
2024/04/15 11:20:20;;;;;;;4.50;1.40;;;13.10;95.20;;;;;;5460392;26;20023;-82
2024/04/15 11:22:46;;;;;;;2.80;1.15;;;13.00;95.30;;;;;;5474451;26;19998;-82
2024/04/15 11:25:13;;;;;;;6.50;1.38;;;13.00;95.60;;;;;;5452234;26;19995;-82
2024/04/15 11:27:44;;;;;;;3.17;1.33;;;13.00;95.70;;;;;;5481599;26;20006;-82
2024/04/15 11:30:15;;;;;;;2.40;1.20;;;13.00;95.90;;;;;;5481134;26;20030;-82
2024/04/15 11:32:41;;;;;;;3.35;1.17;;;12.90;95.90;;;;;;5498076;26;20005;-81
2024/04/15 11:35:09;;;;;;;3.13;1.08;;;12.90;95.90;;;;;;5396880;26;19994;-82
2024/04/15 11:37:34;;;;;;;4.53;1.40;;;12.90;96.10;;;;;;5460024;26;19998;-85
2024/04/15 11:40:01;;;;;;;5.30;1.42;;;12.90;96.20;;;;;;5460430;26;20422;-81
2024/04/15 11:42:27;;;;;;;5.53;1.70;;;12.90;96.30;;;;;;5459416;26;19990;-82
2024/04/15 11:44:53;;;;;;;2.58;1.30;;;12.90;96.40;;;;;;5400464;26;20009;-83
2024/04/15 11:47:22;;;;;;;3.88;1.45;;;12.80;96.60;;;;;;5460959;26;19998;-83
2024/04/15 11:49:48;;;;;;;4.78;1.40;;;12.70;96.80;;;;;;5401192;26;20437;-82
2024/04/15 11:52:14;;;;;;;3.78;1.20;;;12.70;97.00;;;;;;5430607;26;19998;-83
2024/04/15 11:54:41;;;;;;;3.88;1.50;;;12.80;97.10;;;;;;5430450;26;20009;-84
2024/04/15 11:57:08;;;;;;;4.05;1.63;;;12.70;97.20;;;;;;5430899;26;20022;-83
2024/04/15 11:59:35;;;;;;;6.15;1.60;;;12.60;97.40;;;;;;5460087;26;20126;-84
2024/04/15 12:02:04;;;;;;;3.42;1.30;;;12.50;97.50;;;;;;5459929;26;20438;-84
2024/04/15 12:04:33;;;;;;;3.38;1.30;;;12.50;97.60;;;;;;5460663;26;20434;-83
2024/04/15 12:07:07;;;;;;;4.18;1.23;;;12.50;97.80;;;;;;5459778;26;19998;-83
2024/04/15 12:09:34;;;;;;;4.68;1.45;;;12.40;98.00;;;;;;5492208;26;20331;-84
2024/04/15 12:11:59;;;;;;;3.25;1.10;;;12.40;98.00;;;;;;5460222;26;20039;-83
2024/04/15 12:14:25;;;;;;;4.07;1.10;;;12.40;98.10;;;;;;5400502;26;20002;-83
2024/04/15 12:16:51;;;;;;;5.03;1.30;;;12.50;98.20;;;;;;5491743;26;20461;-82
2024/04/15 12:19:16;;;;;;;5.38;1.40;;;12.50;98.30;;;;;;5460169;26;20005;-83
2024/04/15 12:21:42;;;;;;;2.55;1.05;;;12.50;98.40;;;;;;5460355;26;20438;-82
2024/04/15 12:24:07;;;;;;;2.78;1.15;;;12.50;98.60;;;;;;5459935;26;20001;-84
2024/04/15 12:26:33;;;;;;;5.88;1.00;;;12.60;98.70;;;;;;5460011;26;19998;-84
2024/04/15 12:28:59;;;;;;;4.65;1.45;;;12.70;98.80;;;;;;5460078;26;20011;-84
2024/04/15 12:31:25;;;;;;;4.72;1.30;;;12.70;98.90;;;;;;5430405;26;20430;-82
2024/04/15 12:33:51;;;;;;;3.80;1.40;;;12.80;98.90;;;;;;5459987;26;19993;-83
2024/04/15 12:36:16;;;;;;;4.53;1.40;;;12.90;98.90;;;;;;5460003;26;19994;-83
2024/04/15 12:38:42;;;;;;;3.15;1.20;;;12.90;98.90;;;;;;5429976;26;19994;-83
2024/04/15 12:41:09;;;;;;;3.92;1.20;;;13.00;98.90;;;;;;5429809;26;19998;-84
2024/04/15 12:43:35;;;;;;;3.33;1.00;;;13.00;98.80;;;;;;5429904;26;20022;-83
2024/04/15 12:46:03;;;;;;;3.72;1.10;;;13.00;98.80;;;;;;5460661;26;20070;-84